createdAt,value
2024-01-06T00:00:03.530Z,74.97
2024-01-06T00:02:30.021Z,75.09
2024-01-06T00:04:56.523Z,75.41
2024-01-06T00:07:23.018Z,74.75
2024-01-06T00:09:49.720Z,74.84
2024-01-06T00:12:16.378Z,74.34
2024-01-06T00:14:45.033Z,74.76
2024-01-06T00:17:11.928Z,74.37
2024-01-06T00:19:38.534Z,73.60
2024-01-06T00:22:05.120Z,73.54
2024-01-06T00:24:32.071Z,73.40
2024-01-06T00:26:58.625Z,73.13
2024-01-06T00:29:25.143Z,73.39
2024-01-06T00:31:54.245Z,73.28
2024-01-06T00:34:20.864Z,73.52
2024-01-06T00:36:47.454Z,73.55
2024-01-06T00:39:14.036Z,73.04
2024-01-06T00:41:40.570Z,73.47
2024-01-06T00:44:07.056Z,74.19
2024-01-06T00:46:33.579Z,74.11
2024-01-06T00:49:00.698Z,74.32
2024-01-06T00:51:27.346Z,74.60
2024-01-06T00:53:54.484Z,74.65
2024-01-06T00:56:21.021Z,74.34
2024-01-06T00:58:47.573Z,74.79
2024-01-06T01:01:14.211Z,74.78
2024-01-06T01:03:41.021Z,74.74
2024-01-06T01:06:07.593Z,75.19
2024-01-06T01:08:34.120Z,74.58
2024-01-06T01:11:00.827Z,75.07
2024-01-06T01:13:27.525Z,74.71
2024-01-06T01:15:54.056Z,74.90
2024-01-06T01:18:20.789Z,74.64
2024-01-06T01:20:47.626Z,74.80
2024-01-06T01:23:14.208Z,74.77
2024-01-06T01:25:40.752Z,74.55
2024-01-06T01:28:07.258Z,74.58
2024-01-06T01:30:34.015Z,74.15
2024-01-06T01:33:00.792Z,74.19
2024-01-06T01:35:27.463Z,74.14
2024-01-06T01:37:53.962Z,74.27
2024-01-06T01:40:20.441Z,74.16
2024-01-06T01:42:47.031Z,74.03
2024-01-06T01:45:13.829Z,74.09
2024-01-06T01:47:40.932Z,74.45
2024-01-06T01:50:08.908Z,74.41
2024-01-06T01:52:36.955Z,74.21
2024-01-06T01:55:03.839Z,73.73
2024-01-06T01:57:30.542Z,73.50
2024-01-06T01:59:58.054Z,73.89
2024-01-06T02:02:24.751Z,73.71
2024-01-06T02:04:51.447Z,73.96
2024-01-06T02:07:18.198Z,73.48
2024-01-06T02:09:44.746Z,73.66
2024-01-06T02:12:11.328Z,73.78
2024-01-06T02:14:37.827Z,74.18
2024-01-06T02:17:04.493Z,74.20
2024-01-06T02:19:31.187Z,73.96
2024-01-06T02:21:57.752Z,73.76
2024-01-06T02:24:24.363Z,74.08
2024-01-06T02:26:51.686Z,74.16
2024-01-06T02:29:18.430Z,74.14
2024-01-06T02:31:45.246Z,74.38
2024-01-06T02:34:12.005Z,74.46
2024-01-06T02:36:38.693Z,74.28
2024-01-06T02:39:05.324Z,74.77
2024-01-06T02:41:31.968Z,74.63
2024-01-06T02:43:58.510Z,74.77
2024-01-06T02:46:25.247Z,74.97
2024-01-06T02:48:51.952Z,74.62
2024-01-06T02:51:18.653Z,74.90
2024-01-06T02:53:45.229Z,75.16
2024-01-06T02:56:13.067Z,74.86
2024-01-06T02:58:40.397Z,75.15
2024-01-06T03:01:07.313Z,75.46
2024-01-06T03:03:34.179Z,74.84
2024-01-06T03:06:01.143Z,74.78
2024-01-06T03:08:27.997Z,74.92
2024-01-06T03:10:54.550Z,74.42
2024-01-06T03:13:21.375Z,74.63
2024-01-06T03:15:48.197Z,74.65
2024-01-06T03:18:14.942Z,74.70
2024-01-06T03:20:41.594Z,74.74
2024-01-06T03:23:08.197Z,74.42
2024-01-06T03:25:34.675Z,74.62
2024-01-06T03:28:01.178Z,74.59
2024-01-06T03:30:27.851Z,74.58
2024-01-06T03:32:54.495Z,74.45
2024-01-06T03:35:21.099Z,74.46
2024-01-06T03:37:47.698Z,74.36
2024-01-06T03:40:14.294Z,74.50
2024-01-06T03:42:40.865Z,74.60
2024-01-06T03:45:08.101Z,74.70
2024-01-06T03:47:34.763Z,74.79
2024-01-06T03:50:01.300Z,74.99
2024-01-06T03:52:27.782Z,74.70
2024-01-06T03:54:55.925Z,74.92
2024-01-06T03:57:23.623Z,75.01
2024-01-06T03:59:50.152Z,75.25
2024-01-06T04:02:16.667Z,75.23
2024-01-06T04:04:43.365Z,75.56
2024-01-06T04:07:09.930Z,75.49
2024-01-06T04:09:36.526Z,75.57
2024-01-06T04:12:03.448Z,75.79
2024-01-06T04:14:29.997Z,76.21
2024-01-06T04:16:57.705Z,75.77
2024-01-06T04:19:24.856Z,75.87
2024-01-06T04:21:52.214Z,76.02
2024-01-06T04:24:19.215Z,75.75
2024-01-06T04:26:47.067Z,75.58
2024-01-06T04:29:13.878Z,75.56
2024-01-06T04:31:42.392Z,75.68
2024-01-06T04:34:09.294Z,75.50
2024-01-06T04:36:36.069Z,75.69
2024-01-06T04:39:02.674Z,75.82
2024-01-06T04:41:29.228Z,75.83
2024-01-06T04:43:55.746Z,75.67
2024-01-06T04:46:22.567Z,75.95
2024-01-06T04:48:49.217Z,76.08
2024-01-06T04:51:16.670Z,75.78
2024-01-06T04:53:43.289Z,75.97
2024-01-06T04:56:09.820Z,76.18
2024-01-06T04:58:36.339Z,76.17
2024-01-06T05:01:03.501Z,76.36
2024-01-06T05:03:30.384Z,76.30
2024-01-06T05:05:57.123Z,76.75
2024-01-06T05:08:23.827Z,76.87
2024-01-06T05:10:50.582Z,76.84
2024-01-06T05:13:18.451Z,77.07
2024-01-06T05:15:45.039Z,77.27
2024-01-06T05:18:11.809Z,77.16
2024-01-06T05:20:38.405Z,77.37
2024-01-06T05:23:05.053Z,77.82
2024-01-06T05:25:31.635Z,77.10
2024-01-06T05:27:58.431Z,77.39
2024-01-06T05:30:25.140Z,77.37
2024-01-06T05:32:51.966Z,77.05
2024-01-06T05:35:18.560Z,77.01
2024-01-06T05:37:45.202Z,77.08
2024-01-06T05:40:12.776Z,76.99
2024-01-06T05:42:39.602Z,77.25
2024-01-06T05:45:06.660Z,76.87
2024-01-06T05:47:33.666Z,77.06
2024-01-06T05:50:00.506Z,76.37
2024-01-06T05:52:27.137Z,77.20
2024-01-06T05:54:53.848Z,79.69
2024-01-06T05:57:20.624Z,79.38
2024-01-06T05:59:47.191Z,75.83
2024-01-06T06:02:13.799Z,72.14
2024-01-06T06:04:40.493Z,71.69
2024-01-06T06:07:07.122Z,72.35
2024-01-06T06:09:35.769Z,72.91
2024-01-06T06:12:02.484Z,73.83
2024-01-06T06:14:30.458Z,73.61
2024-01-06T06:16:58.007Z,74.44
2024-01-06T06:19:24.955Z,73.43
2024-01-06T06:21:51.763Z,74.13
2024-01-06T06:24:18.451Z,72.93
2024-01-06T06:26:45.021Z,72.74
2024-01-06T06:29:11.594Z,73.10
2024-01-06T06:31:38.257Z,73.54
2024-01-06T06:34:08.671Z,73.88
2024-01-06T06:36:36.196Z,74.40
2024-01-06T06:39:05.252Z,74.42
2024-01-06T06:41:32.002Z,74.33
2024-01-06T06:43:58.763Z,74.58
2024-01-06T06:46:25.551Z,74.57
2024-01-06T06:48:52.209Z,74.79
2024-01-06T06:51:18.778Z,74.53
2024-01-06T06:53:46.091Z,74.91
2024-01-06T06:56:15.414Z,74.95
2024-01-06T06:58:41.946Z,74.98
2024-01-06T07:01:08.710Z,75.17
2024-01-06T07:03:35.510Z,75.13
2024-01-06T07:06:02.113Z,75.03
2024-01-06T07:08:28.725Z,75.00
2024-01-06T07:10:55.248Z,75.15
2024-01-06T07:13:21.747Z,75.35
2024-01-06T07:15:48.996Z,74.74
2024-01-06T07:18:15.688Z,74.94
2024-01-06T07:20:42.484Z,75.13
2024-01-06T07:23:09.021Z,75.36
2024-01-06T07:25:35.530Z,75.07
2024-01-06T07:28:02.237Z,75.02
2024-01-06T07:30:28.886Z,75.54
2024-01-06T07:32:55.496Z,74.67
2024-01-06T07:35:21.976Z,75.06
2024-01-06T07:37:48.549Z,74.92
2024-01-06T07:40:17.623Z,74.60
2024-01-06T07:42:45.040Z,74.50
2024-01-06T07:45:11.744Z,74.60
2024-01-06T07:47:39.686Z,74.55
2024-01-06T07:50:06.892Z,74.54
2024-01-06T07:52:33.985Z,74.65
2024-01-06T07:55:00.727Z,74.80
2024-01-06T07:57:27.396Z,74.30
2024-01-06T07:59:53.900Z,73.71
2024-01-06T08:02:20.390Z,73.46
2024-01-06T08:04:47.134Z,73.62
2024-01-06T08:07:14.920Z,73.42
2024-01-06T08:09:42.301Z,73.22
2024-01-06T08:12:09.002Z,73.05
2024-01-06T08:14:35.647Z,72.50
2024-01-06T08:17:02.162Z,72.79
2024-01-06T08:19:31.739Z,72.91
2024-01-06T08:21:58.384Z,72.95
2024-01-06T08:24:25.760Z,73.17
2024-01-06T08:26:52.253Z,72.99
2024-01-06T08:29:20.798Z,72.96
2024-01-06T08:31:47.558Z,72.30
2024-01-06T08:34:14.500Z,72.68
2024-01-06T08:36:42.299Z,72.94
2024-01-06T08:39:09.590Z,73.35
2024-01-06T08:41:36.146Z,73.18
2024-01-06T08:44:02.704Z,73.23
2024-01-06T08:46:29.218Z,73.03
2024-01-06T08:48:55.809Z,73.25
2024-01-06T08:51:22.693Z,73.45
2024-01-06T08:53:49.229Z,73.73
2024-01-06T08:56:17.233Z,73.32
2024-01-06T08:58:43.751Z,73.52
2024-01-06T09:01:10.646Z,73.54
2024-01-06T09:03:37.313Z,74.11
2024-01-06T09:06:05.294Z,74.00
2024-01-06T09:08:32.146Z,74.52
2024-01-06T09:10:59.530Z,74.27
2024-01-06T09:13:26.359Z,74.19
2024-01-06T09:15:53.149Z,73.90
2024-01-06T09:18:19.960Z,73.97
2024-01-06T09:20:49.795Z,74.11
2024-01-06T09:23:17.470Z,73.75
2024-01-06T09:25:44.124Z,73.28
2024-01-06T09:28:11.964Z,73.48
2024-01-06T09:30:38.838Z,73.27
2024-01-06T09:33:05.606Z,73.36
2024-01-06T09:35:32.119Z,73.19
2024-01-06T09:37:58.736Z,73.11
2024-01-06T09:40:25.683Z,72.30
2024-01-06T09:42:52.918Z,72.25
2024-01-06T09:45:19.563Z,72.12
2024-01-06T09:47:50.801Z,72.56
2024-01-06T09:50:21.325Z,72.32
2024-01-06T09:52:56.523Z,72.50
2024-01-06T09:55:27.261Z,72.65
2024-01-06T09:57:54.925Z,72.92
2024-01-06T10:00:22.339Z,72.47
2024-01-06T10:02:52.374Z,72.78
2024-01-06T10:05:19.601Z,72.74
2024-01-06T10:07:46.522Z,72.67
2024-01-06T10:10:13.942Z,72.37
2024-01-06T10:12:41.750Z,72.68
2024-01-06T10:15:09.633Z,72.54
2024-01-06T10:17:40.866Z,73.00
2024-01-06T10:20:10.751Z,72.70
2024-01-06T10:22:38.509Z,73.79
2024-01-06T10:25:12.214Z,73.11
2024-01-06T10:27:40.885Z,73.17
2024-01-06T10:30:09.128Z,73.32
2024-01-06T10:32:37.936Z,73.04
2024-01-06T10:35:07.462Z,73.00
2024-01-06T10:37:34.068Z,72.71
2024-01-06T10:40:11.827Z,72.07
2024-01-06T10:42:41.977Z,72.13
2024-01-06T10:45:13.708Z,71.69
2024-01-06T10:47:44.510Z,71.17
2024-01-06T10:50:11.863Z,70.90
2024-01-06T10:52:39.853Z,70.84
2024-01-06T10:55:06.995Z,71.10
2024-01-06T10:57:34.863Z,70.30
2024-01-06T11:00:02.178Z,70.36
2024-01-06T11:02:29.309Z,69.99
2024-01-06T11:04:55.828Z,70.33
2024-01-06T11:07:24.695Z,70.68
2024-01-06T11:10:01.696Z,70.71
2024-01-06T11:12:28.608Z,70.09
2024-01-06T11:14:55.610Z,70.15
2024-01-06T11:17:55.551Z,70.86
2024-01-06T11:20:23.781Z,69.95
2024-01-06T11:22:51.851Z,70.18
2024-01-06T11:25:21.184Z,69.91
2024-01-06T11:27:51.701Z,70.21
2024-01-06T11:30:23.041Z,69.46
2024-01-06T11:32:51.363Z,69.70
2024-01-06T11:35:20.791Z,69.56
2024-01-06T11:37:47.297Z,69.19
2024-01-06T11:40:22.621Z,69.36
2024-01-06T11:42:57.262Z,69.51
2024-01-06T11:45:26.025Z,69.47
2024-01-06T11:47:58.180Z,69.45
2024-01-06T11:50:24.837Z,69.71
2024-01-06T11:52:52.125Z,69.67
2024-01-06T11:55:20.061Z,68.98
2024-01-06T11:57:46.789Z,69.04
2024-01-06T12:00:15.516Z,69.26
2024-01-06T12:02:42.604Z,69.19
2024-01-06T12:05:19.231Z,69.65
2024-01-06T12:07:59.617Z,68.80
2024-01-06T12:10:27.891Z,69.32
2024-01-06T12:12:59.803Z,69.06
2024-01-06T12:15:27.512Z,69.03
2024-01-06T12:17:54.157Z,69.10
2024-01-06T12:20:22.109Z,70.26
2024-01-06T12:22:48.959Z,69.40
2024-01-06T12:25:16.738Z,69.62
2024-01-06T12:27:44.564Z,69.72
2024-01-06T12:30:17.684Z,69.28
2024-01-06T12:32:46.570Z,69.21
2024-01-06T12:35:13.734Z,69.09
2024-01-06T12:37:42.565Z,68.84
2024-01-06T12:40:14.361Z,68.90
2024-01-06T12:42:41.049Z,68.09
2024-01-06T12:45:08.080Z,68.31
2024-01-06T12:47:35.178Z,68.41
2024-01-06T12:50:01.823Z,68.88
2024-01-06T12:52:28.401Z,68.79
2024-01-06T12:54:54.959Z,68.85
2024-01-06T12:57:21.667Z,68.91
2024-01-06T12:59:48.667Z,68.15
2024-01-06T13:02:15.268Z,68.38
2024-01-06T13:04:41.880Z,68.33
2024-01-06T13:07:08.528Z,68.53
2024-01-06T13:09:35.330Z,68.83
2024-01-06T13:12:02.131Z,68.85
2024-01-06T13:14:30.983Z,69.25
2024-01-06T13:16:57.553Z,69.74
2024-01-06T13:19:24.690Z,69.42
2024-01-06T13:21:51.354Z,69.03
2024-01-06T13:24:18.020Z,69.00
2024-01-06T13:26:44.572Z,69.32
2024-01-06T13:29:11.121Z,69.00
2024-01-06T13:31:38.490Z,69.03
2024-01-06T13:34:07.011Z,69.35
2024-01-06T13:36:33.633Z,69.34
2024-01-06T13:39:01.047Z,69.86
2024-01-06T13:41:28.438Z,69.79
2024-01-06T13:43:55.645Z,70.39
2024-01-06T13:46:22.169Z,70.65
2024-01-06T13:48:48.888Z,70.62
2024-01-06T13:51:15.547Z,70.70
2024-01-06T13:53:42.318Z,70.87
2024-01-06T13:56:09.116Z,71.24
2024-01-06T13:58:39.637Z,70.87
2024-01-06T14:01:06.332Z,71.58
2024-01-06T14:03:33.940Z,71.74
2024-01-06T14:06:00.926Z,71.74
2024-01-06T14:08:27.581Z,71.97
2024-01-06T14:10:54.164Z,72.57
2024-01-06T14:13:20.665Z,72.93
2024-01-06T14:15:47.309Z,73.86
2024-01-06T14:18:16.006Z,73.78
2024-01-06T14:20:43.347Z,74.03
2024-01-06T14:23:11.775Z,74.70
2024-01-06T14:25:38.338Z,75.06
2024-01-06T14:28:07.111Z,75.14
2024-01-06T14:30:33.891Z,74.94
2024-01-06T14:33:01.015Z,75.03
2024-01-06T14:35:27.697Z,74.67
2024-01-06T14:37:55.401Z,74.27
2024-01-06T14:40:22.025Z,73.38
2024-01-06T14:42:48.776Z,72.93
2024-01-06T14:45:15.734Z,72.60
2024-01-06T14:47:42.379Z,73.16
2024-01-06T14:50:09.357Z,72.93
2024-01-06T14:52:35.911Z,72.13
2024-01-06T14:55:02.524Z,72.46
2024-01-06T14:57:29.155Z,72.10
2024-01-06T14:59:55.690Z,71.90
2024-01-06T15:02:22.181Z,70.87
2024-01-06T15:04:48.973Z,70.67
2024-01-06T15:07:15.664Z,70.32
2024-01-06T15:09:43.003Z,69.60
2024-01-06T15:12:09.812Z,69.39
2024-01-06T15:14:36.645Z,69.50
2024-01-06T15:17:03.313Z,69.66
2024-01-06T15:19:32.322Z,68.63
2024-01-06T15:21:58.959Z,68.47
2024-01-06T15:24:25.728Z,68.29
2024-01-06T15:26:53.882Z,67.45
2024-01-06T15:29:21.389Z,67.27
2024-01-06T15:31:48.120Z,66.42
2024-01-06T15:34:15.138Z,66.26
2024-01-06T15:36:41.878Z,66.55
2024-01-06T15:39:08.524Z,66.10
2024-01-06T15:41:35.123Z,66.62
2024-01-06T15:44:01.602Z,65.82
2024-01-06T15:46:28.101Z,66.31
2024-01-06T15:48:54.889Z,65.75
2024-01-06T15:51:24.059Z,66.02
2024-01-06T15:53:50.800Z,65.94
2024-01-06T15:56:17.347Z,66.07
2024-01-06T15:58:43.910Z,65.85
2024-01-06T16:01:10.680Z,66.18
2024-01-06T16:03:37.299Z,66.15
2024-01-06T16:06:04.771Z,65.89
2024-01-06T16:08:31.352Z,65.79
2024-01-06T16:10:57.927Z,65.48
2024-01-06T16:13:24.457Z,65.52
2024-01-06T16:15:52.272Z,65.61
2024-01-06T16:18:20.713Z,65.73
2024-01-06T16:20:48.127Z,65.60
2024-01-06T16:23:17.028Z,65.45
2024-01-06T16:25:44.131Z,66.21
2024-01-06T16:28:12.815Z,65.62
2024-01-06T16:30:40.312Z,65.73
2024-01-06T16:33:08.025Z,65.55
2024-01-06T16:35:35.702Z,65.49
2024-01-06T16:38:03.000Z,65.90
2024-01-06T16:40:30.119Z,65.46
2024-01-06T16:42:56.656Z,65.43
2024-01-06T16:45:23.298Z,65.55
2024-01-06T16:47:50.325Z,65.71
2024-01-06T16:50:16.957Z,65.82
2024-01-06T16:52:43.442Z,65.62
2024-01-06T16:55:10.192Z,65.83
2024-01-06T16:57:36.763Z,65.96
2024-01-06T17:00:05.939Z,65.96
2024-01-06T17:02:32.695Z,65.76
2024-01-06T17:04:59.412Z,65.92
2024-01-06T17:07:26.429Z,65.86
2024-01-06T17:09:53.071Z,65.96
2024-01-06T17:12:22.752Z,65.85
2024-01-06T17:14:49.734Z,66.33
2024-01-06T17:17:16.310Z,65.75
2024-01-06T17:19:43.064Z,66.05
2024-01-06T17:22:09.697Z,65.92
2024-01-06T17:24:37.099Z,66.51
2024-01-06T17:27:03.978Z,66.12
2024-01-06T17:29:31.669Z,66.43
2024-01-06T17:31:59.057Z,66.29
2024-01-06T17:34:25.744Z,66.45
2024-01-06T17:36:52.374Z,66.59
2024-01-06T17:39:19.140Z,66.50
2024-01-06T17:41:53.300Z,66.43
2024-01-06T17:44:26.069Z,66.48
2024-01-06T17:46:52.564Z,66.35
2024-01-06T17:49:19.304Z,66.53
2024-01-06T17:51:46.016Z,66.84
2024-01-06T17:54:13.700Z,66.56
2024-01-06T17:56:40.293Z,66.44
2024-01-06T17:59:07.009Z,66.71
2024-01-06T18:01:33.611Z,66.63
2024-01-06T18:04:00.313Z,66.35
2024-01-06T18:06:27.157Z,66.84
2024-01-06T18:08:53.832Z,67.19
2024-01-06T18:11:20.437Z,66.65
2024-01-06T18:13:46.961Z,66.89
2024-01-06T18:16:15.052Z,66.83
2024-01-06T18:18:41.813Z,66.90
2024-01-06T18:21:09.978Z,67.04
2024-01-06T18:23:36.606Z,67.37
2024-01-06T18:26:04.163Z,67.66
2024-01-06T18:28:31.213Z,67.99
2024-01-06T18:30:57.913Z,68.22
2024-01-06T18:33:24.705Z,68.52
2024-01-06T18:35:51.243Z,68.75
2024-01-06T18:38:17.890Z,69.00
2024-01-06T18:40:44.377Z,69.70
2024-01-06T18:43:10.990Z,70.13
2024-01-06T18:45:37.714Z,69.95
2024-01-06T18:48:04.708Z,69.60
2024-01-06T18:50:31.322Z,70.00
2024-01-06T18:52:57.880Z,69.60
2024-01-06T18:55:24.492Z,69.19
2024-01-06T18:57:51.364Z,69.72
2024-01-06T19:00:20.498Z,69.43
2024-01-06T19:02:49.096Z,69.46
2024-01-06T19:05:15.884Z,69.61
2024-01-06T19:07:44.871Z,69.49
2024-01-06T19:10:12.500Z,69.57
2024-01-06T19:12:39.187Z,69.13
2024-01-06T19:15:05.947Z,69.31
2024-01-06T19:17:32.510Z,68.82
2024-01-06T19:20:00.950Z,68.56
2024-01-06T19:22:27.602Z,69.10
2024-01-06T19:24:55.588Z,68.86
2024-01-06T19:27:22.293Z,68.20
2024-01-06T19:29:48.799Z,67.87
2024-01-06T19:32:16.709Z,67.74
2024-01-06T19:34:43.691Z,67.78
2024-01-06T19:37:10.490Z,68.36
2024-01-06T19:39:37.211Z,67.50
2024-01-06T19:42:04.554Z,67.22
2024-01-06T19:44:31.234Z,66.99
2024-01-06T19:47:01.587Z,67.45
2024-01-06T19:49:28.588Z,67.30
2024-01-06T19:51:55.254Z,66.90
2024-01-06T19:54:21.965Z,66.76
2024-01-06T19:56:48.610Z,67.36
2024-01-06T19:59:15.239Z,67.15
2024-01-06T20:01:41.926Z,67.12
2024-01-06T20:04:08.594Z,67.25
2024-01-06T20:06:35.754Z,67.35
2024-01-06T20:09:02.602Z,67.74
2024-01-06T20:11:29.146Z,67.30
2024-01-06T20:13:56.557Z,67.29
2024-01-06T20:16:23.126Z,67.38
2024-01-06T20:18:49.804Z,66.95
2024-01-06T20:21:16.600Z,67.29
2024-01-06T20:23:43.253Z,67.08
2024-01-06T20:26:10.647Z,67.02
2024-01-06T20:28:37.151Z,67.15
2024-01-06T20:31:04.320Z,67.98
2024-01-06T20:33:34.540Z,67.83
2024-01-06T20:36:02.070Z,67.59
2024-01-06T20:38:28.764Z,67.61
2024-01-06T20:40:55.328Z,68.10
2024-01-06T20:43:21.895Z,68.00
2024-01-06T20:45:49.978Z,67.72
2024-01-06T20:48:16.941Z,68.49
2024-01-06T20:50:43.530Z,67.88
2024-01-06T20:53:10.740Z,68.05
2024-01-06T20:55:37.554Z,67.81
2024-01-06T20:58:04.366Z,67.66
2024-01-06T21:00:34.718Z,68.00
2024-01-06T21:03:02.395Z,67.70
2024-01-06T21:05:29.378Z,67.98
2024-01-06T21:07:55.964Z,68.04
2024-01-06T21:10:23.024Z,67.98
2024-01-06T21:12:49.563Z,68.09
2024-01-06T21:15:16.914Z,68.12
2024-01-06T21:17:44.612Z,67.62
2024-01-06T21:20:11.944Z,67.41
2024-01-06T21:22:38.818Z,67.29
2024-01-06T21:25:06.704Z,67.28
2024-01-06T21:27:36.992Z,67.50
2024-01-06T21:30:06.538Z,67.56
2024-01-06T21:32:33.884Z,67.79
2024-01-06T21:35:02.819Z,68.07
2024-01-06T21:37:29.800Z,68.09
2024-01-06T21:39:56.670Z,67.90
2024-01-06T21:42:23.296Z,68.22
2024-01-06T21:44:50.001Z,68.47
2024-01-06T21:47:16.549Z,68.05
2024-01-06T21:49:43.189Z,68.52
2024-01-06T21:52:10.538Z,68.19
2024-01-06T21:54:38.070Z,68.20
2024-01-06T21:57:05.020Z,68.19
2024-01-06T21:59:31.674Z,68.04
2024-01-06T22:01:58.569Z,68.13
2024-01-06T22:04:25.758Z,68.48
2024-01-06T22:06:52.627Z,68.29
2024-01-06T22:09:20.070Z,68.41
2024-01-06T22:11:48.154Z,68.11
2024-01-06T22:14:15.075Z,68.22
2024-01-06T22:16:43.145Z,68.28
2024-01-06T22:19:11.402Z,68.40
2024-01-06T22:21:44.188Z,68.02
2024-01-06T22:24:12.073Z,68.54
2024-01-06T22:26:38.650Z,68.60
2024-01-06T22:29:05.239Z,68.43
2024-01-06T22:31:32.209Z,68.77
2024-01-06T22:33:59.940Z,68.54
2024-01-06T22:36:26.787Z,68.81
2024-01-06T22:38:55.982Z,69.51
2024-01-06T22:41:23.833Z,69.62
2024-01-06T22:43:50.417Z,69.74
2024-01-06T22:46:16.978Z,70.12
2024-01-06T22:48:44.329Z,69.69
2024-01-06T22:51:11.273Z,70.12
2024-01-06T22:53:37.820Z,70.46
2024-01-06T22:56:07.375Z,70.42
2024-01-06T22:58:37.453Z,70.33
2024-01-06T23:01:05.839Z,70.30
2024-01-06T23:03:33.013Z,70.52
2024-01-06T23:05:59.623Z,70.50
2024-01-06T23:08:26.682Z,69.99
2024-01-06T23:10:54.542Z,70.40
2024-01-06T23:13:22.273Z,69.80
2024-01-06T23:15:48.997Z,69.83
2024-01-06T23:18:16.124Z,70.28
2024-01-06T23:20:42.862Z,69.99
2024-01-06T23:23:09.502Z,69.49
2024-01-06T23:25:36.016Z,69.41
2024-01-06T23:28:02.543Z,69.17
2024-01-06T23:30:29.186Z,69.25
2024-01-06T23:32:55.860Z,69.50
2024-01-06T23:35:22.524Z,69.41
2024-01-06T23:37:51.758Z,69.32
2024-01-06T23:40:18.683Z,69.44
2024-01-06T23:42:45.393Z,69.61
2024-01-06T23:45:12.034Z,69.45
2024-01-06T23:47:38.600Z,69.03
2024-01-06T23:50:06.098Z,69.04
2024-01-06T23:52:32.712Z,68.94
2024-01-06T23:54:59.342Z,69.17
2024-01-06T23:57:26.451Z,69.23
2024-01-06T23:59:53.066Z,69.39
